Time;durP1;ratioP1;P1;durP2;ratioP2;P2;SDS_P1;SDS_P2;PMS_P1;PMS_P2;Temp;Humidity;BMP_temperature;BMP_pressure;BME280_temperature;BME280_humidity;BME280_pressure;Samples;Min_cycle;Max_cycle;Signal;HPM_P1;HPM_P2
2022/04/06 00:00:19;;;;;;;7.72;2.20;;;9.70;69.90;;;;;;5077867;28;20028;-54
2022/04/06 00:02:46;;;;;;;3.83;1.85;;;9.70;69.40;;;;;;5077857;28;20028;-51
2022/04/06 00:05:12;;;;;;;4.63;1.92;;;9.70;69.00;;;;;;5077769;28;20024;-53
2022/04/06 00:07:41;;;;;;;4.90;2.10;;;9.70;68.10;;;;;;5077828;28;20024;-49
2022/04/06 00:10:09;;;;;;;5.13;2.17;;;9.70;69.00;;;;;;5077718;28;20032;-53
2022/04/06 00:12:37;;;;;;;4.97;2.00;;;9.70;69.10;;;;;;5077963;28;20021;-54
2022/04/06 00:15:04;;;;;;;4.00;1.70;;;9.70;69.50;;;;;;5077669;28;20039;-51
2022/04/06 00:17:30;;;;;;;4.38;1.70;;;9.70;69.80;;;;;;5078125;28;20021;-51
2022/04/06 00:19:56;;;;;;;6.05;1.88;;;9.70;70.10;;;;;;5076287;28;20043;-52
2022/04/06 00:22:22;;;;;;;4.53;1.90;;;9.70;69.20;;;;;;5077304;28;20111;-53
2022/04/06 00:24:48;;;;;;;5.45;1.55;;;9.70;69.20;;;;;;5077224;28;20127;-50
2022/04/06 00:27:14;;;;;;;5.63;2.08;;;9.70;69.50;;;;;;5077001;28;20025;-52
2022/04/06 00:29:40;;;;;;;4.78;1.48;;;9.70;70.20;;;;;;5077455;28;20027;-50
2022/04/06 00:32:06;;;;;;;3.95;1.70;;;9.70;69.40;;;;;;5077678;28;20021;-52
2022/04/06 00:37:17;;;;;;;;;;;9.70;69.20;;;;;;5078071;28;20032;-51
2022/04/06 00:39:43;;;;;;;3.38;1.35;;;9.60;72.00;;;;;;5077395;28;19904;-51
2022/04/06 00:42:08;;;;;;;4.63;1.63;;;9.70;70.20;;;;;;5077360;28;20032;-55
2022/04/06 00:44:35;;;;;;;3.15;1.40;;;9.70;69.40;;;;;;5077252;28;20020;-54
2022/04/06 00:47:05;;;;;;;4.00;1.30;;;9.70;71.20;;;;;;5077698;28;20050;-50
2022/04/06 00:49:31;;;;;;;3.70;1.40;;;9.60;70.80;;;;;;5077486;28;20021;-50
2022/04/06 00:52:02;;;;;;;3.35;1.20;;;9.60;69.70;;;;;;5077443;28;20044;-54
2022/04/06 00:54:30;;;;;;;3.22;1.40;;;9.60;70.50;;;;;;5077118;28;20029;-53
2022/04/06 00:56:57;;;;;;;3.83;1.58;;;9.60;69.20;;;;;;5077462;28;20044;-52
2022/04/06 00:59:24;;;;;;;4.93;1.40;;;9.60;70.40;;;;;;5077028;28;20388;-54
2022/04/06 01:01:50;;;;;;;3.08;1.50;;;9.60;70.10;;;;;;5077118;28;20560;-53
2022/04/06 01:04:17;;;;;;;3.10;1.60;;;9.60;72.20;;;;;;5077325;28;20028;-54
2022/04/06 01:06:46;;;;;;;2.88;1.30;;;9.60;70.70;;;;;;5077118;28;20024;-52
2022/04/06 01:09:13;;;;;;;3.80;1.40;;;9.50;73.00;;;;;;5077455;28;20020;-51
2022/04/06 01:11:41;;;;;;;4.80;1.83;;;9.50;73.90;;;;;;5077284;28;20545;-53
2022/04/06 01:14:08;;;;;;;3.67;1.23;;;9.50;74.30;;;;;;5077305;28;20103;-50
2022/04/06 01:16:33;;;;;;;4.35;1.55;;;9.50;73.10;;;;;;5077071;28;20046;-53
2022/04/06 01:18:59;;;;;;;3.45;1.27;;;9.60;76.70;;;;;;5077429;28;20557;-54
2022/04/06 01:21:25;;;;;;;2.38;1.10;;;9.60;76.50;;;;;;5077199;28;20029;-51
2022/04/06 01:23:51;;;;;;;5.25;1.45;;;9.60;77.50;;;;;;5076948;28;20052;-52
2022/04/06 01:26:16;;;;;;;1.70;1.08;;;9.70;77.80;;;;;;5077047;28;20035;-54
2022/04/06 01:28:42;;;;;;;4.82;1.40;;;9.70;77.50;;;;;;5077087;28;20031;-51
2022/04/06 01:31:08;;;;;;;3.80;1.30;;;9.70;74.90;;;;;;5076865;28;20021;-52
2022/04/06 01:33:34;;;;;;;2.20;1.58;;;9.70;71.30;;;;;;5077132;28;20024;-54
2022/04/06 01:36:00;;;;;;;2.35;1.25;;;9.70;74.70;;;;;;5077281;28;20368;-54
2022/04/06 01:38:27;;;;;;;2.17;1.42;;;9.70;75.10;;;;;;5077531;28;20028;-51
2022/04/06 01:40:54;;;;;;;2.97;1.30;;;9.80;75.70;;;;;;5080591;28;20028;-50
2022/04/06 01:43:20;;;;;;;2.97;1.20;;;9.80;74.70;;;;;;5080293;28;20484;-54
2022/04/06 01:45:47;;;;;;;2.28;1.30;;;9.80;75.30;;;;;;5080409;28;20024;-54
2022/04/06 01:48:16;;;;;;;3.22;1.25;;;9.90;74.30;;;;;;5080646;28;20021;-52
2022/04/06 01:53:28;;;;;;;3.70;1.20;;;10.00;72.80;;;;;;5080621;28;20074;-50
2022/04/06 01:55:54;;;;;;;1.35;1.08;;;10.00;71.80;;;;;;5080260;28;20385;-53
2022/04/06 01:58:20;;;;;;;2.97;0.90;;;10.10;72.20;;;;;;5080658;28;20031;-55
2022/04/06 02:00:47;;;;;;;1.35;0.80;;;10.20;72.60;;;;;;5080660;28;20028;-51
2022/04/06 02:03:13;;;;;;;2.55;1.63;;;10.20;71.50;;;;;;5080557;28;20024;-53
2022/04/06 02:05:39;;;;;;;1.52;1.00;;;10.20;71.50;;;;;;5080229;28;20396;-51
2022/04/06 02:08:05;;;;;;;2.85;1.20;;;10.30;71.30;;;;;;5080499;28;20498;-53
2022/04/06 02:10:30;;;;;;;2.25;1.00;;;10.30;72.00;;;;;;5080236;28;20044;-55
2022/04/06 02:12:58;;;;;;;1.33;0.90;;;10.40;72.30;;;;;;5080408;28;20021;-51
2022/04/06 02:15:25;;;;;;;3.88;1.30;;;10.40;71.40;;;;;;5080168;28;20542;-53
2022/04/06 02:17:51;;;;;;;2.17;0.90;;;10.40;71.40;;;;;;5079850;28;20060;-54
2022/04/06 02:20:17;;;;;;;1.58;0.90;;;10.50;71.30;;;;;;5080053;28;20020;-53
2022/04/06 02:22:43;;;;;;;4.03;0.90;;;10.50;71.50;;;;;;5079805;28;20054;-54
2022/04/06 02:25:12;;;;;;;3.72;0.88;;;10.50;71.80;;;;;;5079488;28;20040;-53
2022/04/06 02:27:52;;;;;;;2.25;0.93;;;10.50;71.90;;;;;;5079647;28;20472;-52
2022/04/06 02:30:20;;;;;;;3.08;0.93;;;10.50;71.70;;;;;;5080060;28;20380;-54
2022/04/06 02:32:46;;;;;;;2.22;0.90;;;10.60;72.10;;;;;;5079685;28;20024;-55
2022/04/06 02:35:13;;;;;;;1.75;0.82;;;10.60;70.90;;;;;;5080025;28;20594;-48
2022/04/06 02:37:41;;;;;;;2.08;0.90;;;10.60;72.30;;;;;;5079659;28;20039;-51
2022/04/06 02:40:09;;;;;;;1.88;1.00;;;10.60;73.10;;;;;;5080108;28;20048;-54
2022/04/06 02:42:35;;;;;;;2.38;0.80;;;10.60;74.10;;;;;;5079888;28;20471;-51
2022/04/06 02:45:00;;;;;;;3.55;1.00;;;10.70;72.50;;;;;;5079461;28;20126;-54
2022/04/06 02:47:26;;;;;;;4.50;1.25;;;10.70;74.40;;;;;;5079504;28;20100;-55
2022/04/06 02:49:52;;;;;;;4.28;1.17;;;10.80;75.00;;;;;;5078899;28;20059;-52
2022/04/06 02:52:18;;;;;;;4.55;1.30;;;10.80;74.20;;;;;;5079045;28;20033;-52
2022/04/06 02:54:44;;;;;;;3.72;1.30;;;10.80;75.00;;;;;;5079194;28;20032;-52
2022/04/06 02:57:09;;;;;;;3.42;1.10;;;10.80;74.80;;;;;;5079111;28;20029;-54
2022/04/06 02:59:37;;;;;;;4.60;1.25;;;10.90;75.30;;;;;;5079087;28;20024;-55
2022/04/06 03:02:03;;;;;;;4.10;1.40;;;10.90;75.40;;;;;;5078923;28;20465;-55
2022/04/06 03:04:29;;;;;;;3.33;1.60;;;10.90;74.60;;;;;;5079093;28;20032;-50
2022/04/06 03:06:54;;;;;;;5.15;1.30;;;10.90;75.20;;;;;;5078844;28;20031;-51
2022/04/06 03:09:20;;;;;;;3.00;1.17;;;10.90;74.60;;;;;;5078928;28;20023;-52
2022/04/06 03:11:46;;;;;;;5.82;1.35;;;11.00;75.80;;;;;;5079069;28;20036;-50
2022/04/06 03:14:12;;;;;;;3.28;1.20;;;11.00;75.80;;;;;;5079075;28;20024;-51
2022/04/06 03:16:37;;;;;;;3.80;1.13;;;11.00;74.80;;;;;;5078970;28;20036;-51
2022/04/06 03:19:03;;;;;;;3.58;1.00;;;11.00;73.50;;;;;;5078660;28;20507;-50
2022/04/06 03:21:29;;;;;;;2.40;0.90;;;11.00;72.30;;;;;;5078860;28;20032;-53
2022/04/06 03:23:55;;;;;;;5.65;1.20;;;11.00;73.10;;;;;;5078408;28;20059;-53
2022/04/06 03:26:20;;;;;;;2.00;0.98;;;11.00;72.50;;;;;;5078574;28;20029;-48
2022/04/06 03:28:46;;;;;;;3.58;0.98;;;11.00;72.00;;;;;;5078760;28;20013;-53
2022/04/06 03:31:12;;;;;;;8.60;1.33;;;11.00;71.50;;;;;;5078624;28;20361;-48
2022/04/06 03:33:38;;;;;;;4.20;1.13;;;11.00;71.60;;;;;;5078386;28;20020;-50
2022/04/06 03:36:04;;;;;;;2.75;0.90;;;11.00;72.40;;;;;;5078271;28;20036;-48
2022/04/06 03:38:30;;;;;;;6.10;1.33;;;11.00;73.40;;;;;;5078373;28;20029;-51
2022/04/06 03:40:56;;;;;;;2.53;1.10;;;11.00;73.90;;;;;;5078524;28;20032;-52
2022/04/06 03:43:22;;;;;;;5.50;1.25;;;11.00;73.40;;;;;;5078475;28;20024;-54
2022/04/06 03:45:48;;;;;;;3.30;1.08;;;11.00;73.20;;;;;;5078256;28;20032;-51
2022/04/06 03:48:14;;;;;;;5.97;1.10;;;11.00;73.80;;;;;;5078143;28;20019;-52
2022/04/06 03:50:39;;;;;;;4.38;1.33;;;11.00;74.00;;;;;;5078028;28;20024;-50
2022/04/06 03:53:05;;;;;;;3.38;1.17;;;11.00;73.30;;;;;;5078222;28;20021;-52
2022/04/06 03:55:31;;;;;;;3.05;1.02;;;11.00;74.00;;;;;;5078025;28;20487;-54
2022/04/06 03:57:57;;;;;;;3.67;1.20;;;11.00;73.30;;;;;;5078374;28;20028;-49
2022/04/06 04:00:23;;;;;;;4.35;1.15;;;11.00;73.10;;;;;;5078275;28;20028;-51
2022/04/06 04:02:51;;;;;;;3.00;1.20;;;11.00;73.50;;;;;;5077312;28;20107;-49
2022/04/06 04:05:18;;;;;;;4.53;1.42;;;11.00;73.40;;;;;;5078017;28;20033;-53
2022/04/06 04:07:44;;;;;;;5.72;1.45;;;11.00;74.10;;;;;;5078030;28;20017;-48
2022/04/06 04:10:10;;;;;;;5.60;1.27;;;11.00;73.90;;;;;;5077816;28;20023;-51
2022/04/06 04:12:39;;;;;;;6.32;1.38;;;11.00;73.70;;;;;;5077753;28;20080;-50
2022/04/06 04:15:05;;;;;;;4.00;1.10;;;11.00;74.20;;;;;;5077526;28;20083;-51
2022/04/06 04:17:31;;;;;;;2.92;0.95;;;11.00;73.60;;;;;;5077699;28;20051;-53
2022/04/06 04:19:57;;;;;;;2.30;0.90;;;11.00;73.80;;;;;;5077491;28;20025;-51
2022/04/06 04:22:23;;;;;;;2.25;0.93;;;10.90;74.90;;;;;;5077723;28;20028;-52
2022/04/06 04:24:49;;;;;;;2.50;1.13;;;10.90;80.00;;;;;;5077303;28;20048;-51
2022/04/06 04:27:15;;;;;;;4.18;1.02;;;10.80;82.70;;;;;;5077971;28;20024;-49
2022/04/06 04:29:41;;;;;;;4.25;1.00;;;10.80;82.90;;;;;;5077555;28;20099;-52
2022/04/06 04:32:07;;;;;;;3.25;0.90;;;10.80;83.60;;;;;;5077670;28;20044;-51
2022/04/06 04:34:33;;;;;;;3.20;0.88;;;10.80;81.50;;;;;;5077776;28;20039;-49
2022/04/06 04:36:59;;;;;;;3.90;0.82;;;10.80;84.60;;;;;;5076098;28;20021;-52
2022/04/06 04:39:24;;;;;;;4.43;1.13;;;10.70;83.40;;;;;;5077580;28;20047;-49
2022/04/06 04:41:50;;;;;;;3.45;1.05;;;10.70;81.80;;;;;;5077549;28;20142;-48
2022/04/06 04:44:16;;;;;;;2.35;0.80;;;10.60;82.60;;;;;;5077037;28;20108;-51
2022/04/06 04:46:42;;;;;;;2.63;0.80;;;10.60;83.60;;;;;;5077477;28;20161;-48
2022/04/06 04:49:07;;;;;;;3.67;1.10;;;10.60;81.50;;;;;;5077318;28;20020;-51
2022/04/06 04:51:34;;;;;;;5.25;1.63;;;10.50;84.70;;;;;;5077337;28;20020;-51
2022/04/06 04:54:00;;;;;;;4.10;0.93;;;10.50;80.80;;;;;;5077486;28;20039;-51
2022/04/06 04:56:30;;;;;;;3.00;1.15;;;10.50;81.80;;;;;;5077267;28;20074;-52
2022/04/06 04:58:56;;;;;;;2.83;0.93;;;10.50;79.70;;;;;;5077452;28;20078;-54
2022/04/06 05:01:22;;;;;;;3.38;0.85;;;10.50;80.90;;;;;;5076987;28;20025;-52
2022/04/06 05:03:49;;;;;;;7.22;0.93;;;10.50;82.30;;;;;;5077179;28;20035;-50
2022/04/06 05:06:15;;;;;;;4.32;0.90;;;10.50;80.50;;;;;;5077140;28;20059;-53
2022/04/06 05:08:41;;;;;;;2.58;0.80;;;10.50;82.50;;;;;;5077339;28;20024;-52
2022/04/06 05:11:07;;;;;;;2.22;0.77;;;10.50;83.30;;;;;;5077121;28;20020;-50
2022/04/06 05:13:33;;;;;;;1.77;0.70;;;10.50;83.00;;;;;;5076656;28;20056;-47
2022/04/06 05:15:58;;;;;;;4.78;0.70;;;10.50;82.20;;;;;;5081218;28;20024;-50
2022/04/06 05:18:26;;;;;;;3.25;0.70;;;10.60;80.50;;;;;;5081458;28;20032;-51
2022/04/06 05:20:55;;;;;;;4.10;0.88;;;10.60;82.40;;;;;;5081343;28;20017;-51
2022/04/06 05:23:20;;;;;;;3.08;0.90;;;10.60;83.10;;;;;;5080540;28;20032;-48
2022/04/06 05:25:46;;;;;;;5.78;1.30;;;10.60;83.50;;;;;;5080545;28;20044;-53
2022/04/06 05:28:15;;;;;;;3.70;0.85;;;10.60;81.80;;;;;;5080750;28;20052;-50
2022/04/06 05:30:41;;;;;;;7.05;1.17;;;10.60;83.20;;;;;;5080803;28;20020;-50
2022/04/06 05:33:08;;;;;;;3.35;1.02;;;10.60;85.40;;;;;;5080770;28;20033;-51
2022/04/06 05:35:34;;;;;;;7.15;1.05;;;10.70;85.10;;;;;;5080671;28;20051;-50
2022/04/06 05:38:00;;;;;;;4.88;1.25;;;10.70;84.70;;;;;;5080600;28;20423;-50
2022/04/06 05:40:26;;;;;;;7.78;1.48;;;10.70;84.50;;;;;;5080827;28;20027;-50
2022/04/06 05:42:52;;;;;;;5.70;1.50;;;10.80;86.80;;;;;;5080511;28;20025;-51
2022/04/06 05:45:18;;;;;;;6.18;1.20;;;10.80;87.30;;;;;;5080650;28;20016;-50
2022/04/06 05:47:44;;;;;;;6.63;1.70;;;10.80;87.20;;;;;;5080476;28;20032;-50
2022/04/06 05:50:11;;;;;;;4.43;1.10;;;10.70;90.20;;;;;;5080680;28;20032;-54
2022/04/06 05:52:37;;;;;;;3.70;1.08;;;10.70;90.10;;;;;;5080521;28;20032;-51
2022/04/06 05:55:04;;;;;;;2.65;0.95;;;10.70;87.10;;;;;;5080584;28;20027;-51
2022/04/06 05:57:29;;;;;;;3.67;1.20;;;10.70;84.60;;;;;;5080198;28;20400;-51
2022/04/06 05:59:55;;;;;;;4.30;0.70;;;10.60;85.50;;;;;;5080519;28;20028;-52
2022/04/06 06:02:23;;;;;;;3.33;0.80;;;10.60;86.20;;;;;;5080125;28;20029;-52
2022/04/06 06:04:50;;;;;;;5.15;0.90;;;10.50;87.70;;;;;;5078655;28;20039;-53
2022/04/06 06:07:18;;;;;;;1.30;0.60;;;10.50;86.70;;;;;;5080282;28;20039;-52
2022/04/06 06:09:43;;;;;;;0.98;0.50;;;10.40;85.80;;;;;;5080316;28;20380;-51
2022/04/06 06:12:09;;;;;;;1.17;0.43;;;10.40;84.30;;;;;;5080013;28;20024;-55
2022/04/06 06:14:35;;;;;;;2.13;0.50;;;10.30;84.00;;;;;;5080288;28;20044;-51
2022/04/06 06:17:01;;;;;;;2.15;0.50;;;10.30;85.40;;;;;;5080023;28;20032;-51
2022/04/06 06:19:27;;;;;;;2.08;0.43;;;10.40;86.40;;;;;;5079862;28;20052;-52
2022/04/06 06:21:53;;;;;;;3.20;0.50;;;10.30;85.50;;;;;;5079915;28;20058;-50
2022/04/06 06:24:20;;;;;;;1.40;0.60;;;10.40;84.80;;;;;;5080082;28;20036;-49
2022/04/06 06:26:47;;;;;;;2.65;0.63;;;10.30;89.00;;;;;;5078746;28;20085;-50
2022/04/06 06:29:13;;;;;;;3.35;0.77;;;10.30;89.80;;;;;;5079169;28;20076;-52
2022/04/06 06:31:39;;;;;;;3.47;1.00;;;10.30;85.40;;;;;;5079546;28;20040;-51
2022/04/06 06:34:05;;;;;;;3.63;0.90;;;10.30;89.10;;;;;;5079961;28;20499;-53
2022/04/06 06:36:31;;;;;;;9.00;1.73;;;10.30;89.40;;;;;;5079512;28;20493;-53
2022/04/06 06:38:56;;;;;;;3.50;0.90;;;10.40;89.60;;;;;;5079592;28;20098;-54
2022/04/06 06:41:23;;;;;;;5.00;1.23;;;10.50;91.40;;;;;;5079642;28;20383;-52
2022/04/06 06:43:50;;;;;;;3.47;1.00;;;10.60;91.40;;;;;;5079520;28;20060;-53
2022/04/06 06:46:20;;;;;;;9.98;1.52;;;10.70;90.30;;;;;;5079484;28;20025;-53
2022/04/06 06:48:47;;;;;;;5.05;0.90;;;10.80;90.50;;;;;;5079249;28;20027;-50
2022/04/06 06:51:14;;;;;;;11.68;4.15;;;10.80;88.00;;;;;;5079200;28;20027;-55
2022/04/06 06:53:40;;;;;;;5.70;1.30;;;10.90;88.30;;;;;;5078968;28;20028;-50
2022/04/06 06:56:06;;;;;;;5.85;1.05;;;10.90;86.40;;;;;;5078733;28;20084;-52
2022/04/06 06:58:33;;;;;;;5.93;1.00;;;11.00;86.20;;;;;;5079295;28;20082;-52
2022/04/06 07:00:59;;;;;;;5.00;1.00;;;11.00;86.20;;;;;;5079025;28;20074;-52
2022/04/06 07:03:24;;;;;;;4.80;1.02;;;11.00;86.80;;;;;;5079149;28;20025;-52
2022/04/06 07:05:50;;;;;;;6.97;1.20;;;11.00;87.00;;;;;;5079016;28;20031;-52
2022/04/06 07:08:16;;;;;;;6.13;1.30;;;11.10;84.70;;;;;;5078823;28;20068;-51
2022/04/06 07:10:46;;;;;;;3.65;0.95;;;11.10;86.80;;;;;;5078892;28;20104;-51
2022/04/06 07:13:16;;;;;;;9.25;1.52;;;11.20;86.80;;;;;;5078713;28;20029;-54
2022/04/06 07:15:43;;;;;;;6.35;1.25;;;11.20;86.70;;;;;;5078507;28;20051;-52
2022/04/06 07:18:09;;;;;;;4.97;1.73;;;11.30;86.40;;;;;;5078801;28;20028;-52
2022/04/06 07:20:36;;;;;;;5.03;1.25;;;11.40;85.40;;;;;;5078356;28;20048;-52
2022/04/06 07:23:06;;;;;;;8.18;1.40;;;11.40;85.40;;;;;;5078525;28;20024;-51
2022/04/06 07:25:33;;;;;;;7.63;1.33;;;11.50;85.90;;;;;;5078214;28;20051;-50
2022/04/06 07:27:58;;;;;;;5.28;1.20;;;11.60;83.70;;;;;;5078666;28;20029;-50
2022/04/06 07:30:25;;;;;;;4.07;1.35;;;11.60;82.40;;;;;;5077876;28;20017;-53
2022/04/06 07:32:51;;;;;;;5.00;1.25;;;11.60;82.10;;;;;;5078655;28;20496;-53
2022/04/06 07:35:17;;;;;;;6.55;1.40;;;11.60;81.30;;;;;;5078204;28;20043;-52
2022/04/06 07:37:48;;;;;;;5.13;0.93;;;11.60;80.90;;;;;;5078261;28;20028;-53
2022/04/06 07:40:16;;;;;;;5.13;1.23;;;11.60;80.90;;;;;;5078431;28;20146;-51
2022/04/06 07:42:42;;;;;;;4.78;1.33;;;11.60;81.20;;;;;;5078102;28;20058;-55
2022/04/06 07:45:13;;;;;;;7.00;1.58;;;11.60;81.30;;;;;;5078289;28;20031;-52
2022/04/06 07:47:40;;;;;;;2.63;0.80;;;11.70;80.80;;;;;;5078304;28;20028;-53
2022/04/06 07:50:07;;;;;;;4.93;1.23;;;11.70;80.80;;;;;;5078175;28;20027;-53
2022/04/06 07:52:35;;;;;;;5.57;0.90;;;11.70;81.00;;;;;;5078282;28;20029;-52
2022/04/06 07:55:02;;;;;;;3.80;1.30;;;11.80;81.30;;;;;;5078304;28;20025;-54
2022/04/06 07:57:28;;;;;;;5.38;1.75;;;11.80;82.10;;;;;;5078331;28;20465;-53
2022/04/06 07:59:56;;;;;;;8.02;1.10;;;11.90;82.40;;;;;;5078088;28;20480;-54
2022/04/06 08:02:22;;;;;;;6.10;1.25;;;12.00;81.00;;;;;;5077588;28;20454;-55
2022/04/06 08:04:48;;;;;;;4.72;0.90;;;12.10;80.70;;;;;;5077817;28;20107;-55
2022/04/06 08:07:14;;;;;;;5.18;0.93;;;12.10;80.50;;;;;;5077225;28;20476;-51
2022/04/06 08:09:40;;;;;;;4.55;0.95;;;12.10;79.70;;;;;;5077584;28;20032;-52
2022/04/06 08:12:06;;;;;;;6.65;1.55;;;12.10;80.20;;;;;;5077552;28;20027;-55
2022/04/06 08:14:33;;;;;;;4.60;1.00;;;12.20;82.00;;;;;;5077546;28;20086;-53
2022/04/06 08:16:59;;;;;;;5.57;1.65;;;12.30;81.50;;;;;;5077593;28;20028;-55
2022/04/06 08:19:25;;;;;;;8.75;1.48;;;12.40;80.80;;;;;;5077502;28;20020;-55
2022/04/06 08:21:52;;;;;;;6.55;2.20;;;12.50;80.10;;;;;;5077783;28;20070;-52
2022/04/06 08:24:18;;;;;;;2.75;0.98;;;12.50;79.60;;;;;;5077418;28;20060;-54
2022/04/06 08:26:45;;;;;;;3.80;1.30;;;12.50;79.20;;;;;;5077333;28;20032;-56
2022/04/06 08:29:11;;;;;;;5.88;1.35;;;12.40;79.50;;;;;;5077955;28;20025;-53
2022/04/06 08:31:37;;;;;;;5.40;1.25;;;12.30;80.00;;;;;;5077627;28;20024;-51
2022/04/06 08:34:05;;;;;;;4.78;1.10;;;12.30;80.30;;;;;;5077580;28;20024;-51
2022/04/06 08:36:32;;;;;;;4.70;1.05;;;12.30;80.50;;;;;;5077372;28;20399;-53
2022/04/06 08:38:59;;;;;;;7.78;1.42;;;12.30;81.00;;;;;;5077695;28;20031;-56
2022/04/06 08:41:26;;;;;;;8.02;1.80;;;12.30;81.10;;;;;;5077358;28;20375;-52
2022/04/06 08:43:53;;;;;;;8.05;1.73;;;12.40;81.80;;;;;;5077490;28;20103;-55
2022/04/06 08:46:20;;;;;;;9.40;1.60;;;12.40;81.80;;;;;;5077200;28;20028;-53
2022/04/06 08:48:51;;;;;;;7.05;2.00;;;12.40;81.30;;;;;;5075451;28;20591;-55
2022/04/06 08:51:18;;;;;;;7.60;1.90;;;12.40;81.10;;;;;;5077303;28;20095;-54
2022/04/06 08:53:45;;;;;;;10.40;1.85;;;12.50;80.30;;;;;;5077119;28;20051;-53
2022/04/06 08:56:12;;;;;;;8.55;1.73;;;12.50;80.10;;;;;;5077330;28;20036;-55
2022/04/06 08:58:39;;;;;;;7.93;2.00;;;12.60;79.90;;;;;;5077276;28;20063;-54
2022/04/06 09:01:05;;;;;;;7.35;2.05;;;12.50;79.70;;;;;;5077317;28;20021;-53
2022/04/06 09:03:31;;;;;;;6.90;1.90;;;12.60;79.40;;;;;;5077014;28;20155;-56
2022/04/06 09:06:11;;;;;;;8.02;2.38;;;12.60;79.30;;;;;;5076968;28;20025;-55
2022/04/06 09:08:46;;;;;;;14.43;1.80;;;12.60;78.30;;;;;;5077061;28;20108;-53
2022/04/06 09:11:13;;;;;;;;;;;12.40;77.00;;;;;;5077466;28;20016;-54
2022/04/06 09:13:41;;;;;;;6.72;1.73;;;12.40;77.90;;;;;;5077403;28;19904;-54
2022/04/06 09:16:09;;;;;;;5.63;2.20;;;12.40;77.90;;;;;;5076515;28;20064;-54
2022/04/06 09:18:38;;;;;;;9.52;2.15;;;12.30;77.60;;;;;;5076952;28;20024;-54
2022/04/06 09:21:04;;;;;;;8.20;1.92;;;12.30;77.70;;;;;;5077031;28;20024;-53
2022/04/06 09:23:33;;;;;;;6.00;1.58;;;12.10;77.80;;;;;;5076780;28;20031;-51
2022/04/06 09:26:06;;;;;;;9.07;2.17;;;12.10;78.80;;;;;;5076507;28;20039;-54
2022/04/06 09:28:37;;;;;;;4.70;1.40;;;12.00;78.60;;;;;;5077005;28;20021;-50
2022/04/06 09:31:02;;;;;;;8.43;1.67;;;12.00;78.60;;;;;;5076725;28;20031;-55
2022/04/06 09:33:29;;;;;;;6.53;1.65;;;12.00;79.20;;;;;;5076672;28;20013;-51
2022/04/06 09:35:58;;;;;;;8.50;2.25;;;12.00;78.90;;;;;;5077153;28;20024;-53
2022/04/06 09:38:27;;;;;;;8.98;2.10;;;12.00;79.10;;;;;;5076831;28;20025;-54
2022/04/06 09:41:06;;;;;;;11.60;2.40;;;12.10;78.90;;;;;;5077004;28;20021;-54
2022/04/06 09:43:34;;;;;;;9.27;1.77;;;12.10;79.80;;;;;;5076717;28;20020;-53
2022/04/06 09:49:28;;;;;;;7.97;2.00;;;12.20;79.90;;;;;;5077298;28;20515;-51
2022/04/06 09:51:54;;;;;;;9.63;2.55;;;12.30;79.70;;;;;;5076850;28;20377;-56
2022/04/06 09:54:20;;;;;;;8.85;1.90;;;12.30;79.80;;;;;;5077240;28;20027;-55
2022/04/06 09:56:46;;;;;;;10.30;2.53;;;12.40;79.50;;;;;;5077182;28;20098;-52
2022/04/06 09:59:14;;;;;;;11.27;2.65;;;12.40;79.40;;;;;;5077116;28;20085;-54
2022/04/06 10:01:45;;;;;;;13.73;2.35;;;12.50;80.00;;;;;;5079555;28;20041;-51
2022/04/06 10:04:12;;;;;;;13.75;3.35;;;12.50;80.10;;;;;;5080482;28;20142;-55
2022/04/06 10:06:40;;;;;;;12.45;2.45;;;12.60;80.00;;;;;;5080390;28;20029;-52
2022/04/06 10:09:09;;;;;;;7.20;2.40;;;12.70;79.80;;;;;;5080534;28;20024;-52
2022/04/06 10:11:40;;;;;;;8.88;2.30;;;12.70;80.40;;;;;;5080377;28;20024;-55
2022/04/06 10:14:09;;;;;;;12.25;2.38;;;12.70;80.70;;;;;;5080486;28;20017;-54
2022/04/06 10:16:36;;;;;;;9.95;2.30;;;12.70;79.80;;;;;;5080318;28;20028;-53
2022/04/06 10:19:05;;;;;;;10.13;2.33;;;12.80;78.10;;;;;;5080149;28;20032;-52
2022/04/06 10:21:55;;;;;;;10.80;2.20;;;12.80;77.10;;;;;;5079941;28;20047;-56
2022/04/06 10:24:33;;;;;;;12.75;2.85;;;12.70;76.80;;;;;;5080043;28;20170;-55
2022/04/06 10:27:04;;;;;;;9.68;2.47;;;12.70;78.00;;;;;;5080278;28;20488;-55
2022/04/06 10:29:29;;;;;;;8.63;2.15;;;12.70;78.20;;;;;;5080079;28;20043;-55
2022/04/06 10:31:55;;;;;;;10.80;2.90;;;12.60;79.30;;;;;;5080184;28;20476;-52
2022/04/06 10:34:28;;;;;;;9.40;2.53;;;12.60;79.00;;;;;;5079948;28;20076;-52
2022/04/06 10:37:15;;;;;;;12.35;3.00;;;12.60;79.00;;;;;;5079933;28;20028;-49
2022/04/06 10:39:50;;;;;;;8.35;3.60;;;12.60;79.20;;;;;;5079838;28;20028;-53
2022/04/06 10:42:37;;;;;;;11.00;2.55;;;12.50;80.10;;;;;;5079806;28;20021;-51
2022/04/06 10:45:29;;;;;;;12.60;2.95;;;12.60;80.10;;;;;;5079902;28;20024;-53
2022/04/06 10:48:15;;;;;;;13.27;2.90;;;12.60;79.90;;;;;;5073974;28;20154;-49
2022/04/06 10:50:50;;;;;;;10.40;3.20;;;12.60;80.00;;;;;;5079573;28;20028;-55
2022/04/06 10:53:18;;;;;;;14.68;2.97;;;12.60;80.40;;;;;;5079745;28;20017;-52
2022/04/06 10:56:16;;;;;;;14.82;2.83;;;12.70;80.20;;;;;;5079741;28;20112;-55
2022/04/06 10:58:54;;;;;;;13.60;3.50;;;12.70;80.50;;;;;;5079280;28;20039;-56
2022/04/06 11:01:25;;;;;;;13.00;2.28;;;12.60;82.50;;;;;;5079377;28;20028;-53
2022/04/06 11:03:59;;;;;;;8.52;2.60;;;12.40;83.70;;;;;;5079111;28;20036;-54
2022/04/06 11:06:49;;;;;;;12.77;3.35;;;12.40;86.40;;;;;;5079524;28;20460;-54
2022/04/06 11:12:13;;;;;;;12.05;2.70;;;12.40;88.80;;;;;;5078812;28;20549;-54
2022/04/06 11:14:40;;;;;;;14.02;3.50;;;12.30;88.90;;;;;;5078982;28;20484;-54
2022/04/06 11:17:44;;;;;;;10.98;3.08;;;12.20;88.50;;;;;;5079282;28;20025;-54
2022/04/06 11:20:15;;;;;;;11.32;2.80;;;12.20;89.20;;;;;;5079373;28;20381;-53
2022/04/06 11:22:44;;;;;;;12.75;2.80;;;12.00;90.20;;;;;;5079158;28;20056;-55
2022/04/06 11:25:16;;;;;;;12.38;3.22;;;12.00;90.80;;;;;;5078775;28;20047;-53
2022/04/06 11:27:44;;;;;;;13.70;4.25;;;12.00;91.70;;;;;;5079136;28;20552;-55
2022/04/06 11:30:16;;;;;;;17.05;3.45;;;11.90;91.40;;;;;;5079009;28;20023;-54
2022/04/06 11:32:50;;;;;;;18.17;4.15;;;11.90;91.50;;;;;;5078956;28;20048;-54
2022/04/06 11:35:17;;;;;;;14.98;3.67;;;11.90;91.90;;;;;;5077264;28;20029;-49
2022/04/06 11:37:49;;;;;;;13.68;3.15;;;11.90;92.50;;;;;;5078872;28;20028;-53
2022/04/06 11:40:20;;;;;;;16.65;4.07;;;12.00;92.60;;;;;;5078824;28;20098;-52
2022/04/06 11:42:48;;;;;;;15.15;3.13;;;12.00;92.10;;;;;;5078835;28;20051;-53
2022/04/06 11:45:20;;;;;;;11.80;3.15;;;12.00;92.20;;;;;;5078658;28;20059;-53
2022/04/06 11:47:52;;;;;;;15.77;3.65;;;12.00;92.20;;;;;;5078476;28;20027;-56
2022/04/06 11:50:18;;;;;;;18.27;3.85;;;12.00;91.70;;;;;;5078414;28;20024;-54
2022/04/06 11:52:44;;;;;;;17.55;3.97;;;12.10;91.50;;;;;;5078598;28;20021;-54
2022/04/06 11:55:10;;;;;;;16.60;3.70;;;12.20;91.40;;;;;;5078558;28;20024;-51
2022/04/06 11:57:45;;;;;;;13.73;3.70;;;12.30;91.70;;;;;;5078481;28;20029;-54
2022/04/06 12:00:13;;;;;;;15.80;3.90;;;12.40;90.90;;;;;;5078282;28;20074;-52
2022/04/06 12:02:53;;;;;;;18.02;3.30;;;12.50;90.70;;;;;;5078362;28;20028;-53
2022/04/06 12:05:20;;;;;;;15.15;4.05;;;12.50;90.40;;;;;;5078263;28;20024;-53
2022/04/06 12:07:47;;;;;;;14.02;3.25;;;12.60;90.20;;;;;;5078273;28;20495;-55
2022/04/06 12:10:14;;;;;;;14.02;3.53;;;12.70;89.60;;;;;;5078033;28;20016;-55
2022/04/06 12:12:41;;;;;;;15.63;3.60;;;12.80;89.00;;;;;;5078265;28;20467;-52
2022/04/06 12:15:08;;;;;;;20.13;3.67;;;12.80;87.90;;;;;;5076695;28;20058;-53
2022/04/06 12:17:36;;;;;;;15.88;3.67;;;12.90;87.90;;;;;;5077770;28;20046;-55
2022/04/06 12:20:22;;;;;;;15.10;4.80;;;13.00;88.50;;;;;;5077995;28;20073;-56
2022/04/06 12:23:08;;;;;;;17.02;3.80;;;13.20;87.20;;;;;;5077278;28;20377;-56
2022/04/06 12:25:35;;;;;;;20.95;4.38;;;13.20;86.90;;;;;;5077387;28;20496;-52
2022/04/06 12:28:21;;;;;;;16.95;3.80;;;13.20;85.90;;;;;;5078072;28;20028;-49
2022/04/06 12:30:58;;;;;;;16.90;4.22;;;13.30;86.40;;;;;;5077781;28;20021;-55
2022/04/06 12:33:38;;;;;;;17.33;3.72;;;13.20;85.30;;;;;;5078008;28;20031;-55
2022/04/06 12:36:17;;;;;;;18.10;3.97;;;13.30;86.00;;;;;;5077748;28;20066;-54
2022/04/06 12:39:14;;;;;;;13.48;3.78;;;13.30;85.40;;;;;;5076318;28;20028;-55
2022/04/06 12:41:59;;;;;;;16.48;3.47;;;13.10;85.10;;;;;;5077729;28;20365;-55
2022/04/06 12:44:33;;;;;;;12.02;3.78;;;12.90;86.50;;;;;;5077607;28;20032;-51
2022/04/06 12:47:00;;;;;;;14.98;4.32;;;12.80;86.80;;;;;;5078016;28;20020;-54
2022/04/06 12:49:35;;;;;;;15.23;3.50;;;12.70;88.90;;;;;;5077839;28;20050;-54
2022/04/06 12:52:27;;;;;;;15.10;4.32;;;12.70;88.30;;;;;;5077592;28;20025;-53
2022/04/06 12:55:07;;;;;;;14.70;4.25;;;12.60;88.90;;;;;;5071951;28;20044;-56
2022/04/06 12:57:36;;;;;;;16.75;4.07;;;12.50;90.20;;;;;;5077735;28;20012;-53
2022/04/06 13:00:10;;;;;;;19.90;4.60;;;12.60;89.40;;;;;;5077457;28;20025;-54
2022/04/06 13:02:37;;;;;;;18.25;4.07;;;12.60;89.90;;;;;;5077623;28;20031;-55